Decoded Metar for KGDP (GUADALUPE PASS in TX, USA) (IATA:GDP) | Meteo·Mobile Aviation Weather
aviador You're here:

KGDP Decoded Metar

GUADALUPE PASS in TX, USA
Report Time2018-08-19 04:51:00
UTC Time2018-08-19 05:27:59
Flight Rules vfr VFR
Wind260° at 10 kt
W.Rank260° ranks 9
Current wind is below 260° avg. (16.4)
Visibility9999 m
Phenomena:Light Rain
Clouds:Overcast 100 Hf
Expected CloudBase > 2,000 ft AGL from Temp-Dew spread
Ceiling10,000 ft
Temp21°C (ISA +17)
Dew Point16°C (73% RH)
AAT19.4°C
QNH1023 hPa
Density Alt7,441 ft
Elevation5,551 ft
Report Wrong Elevation
Raw Report
KGDP 190451Z AUTO 26010KT 10SM -RA OVC100 21/16 A3020 RMK AO2
SLP136 P0001 T02110156 $=

Extra information for KGDP:More info

Metar Taf Metar & Taf Last 4 Metars F.Rules Stats Wind Profile Meteogram Temp Stats Airport Information Weather charts Add Link Nearby VenuesMetar ALERT Operation Metar Decoded Social comments

AIRNAV info for KGDP